Terminal Aerodrome Forecast
Issued by NWS Jackson, KY

Home | Current Version | Previous Version | Text Only | Print | Product List | Glossary On
Versions: 1 2 3 4 5 6 7 8 9 10 11 12 13 14 15
000
FTUS43 KJKL 301429 AAA
TAFLOZ
TAF AMD
KLOZ 301429Z 3014/0112 29005KT P6SM -SHRA OVC060
     FM301900 32006KT P6SM -SHRA VCTS SCT040CB OVC060
     FM010200 VRB05KT P6SM VCSH BKN020
     FM010800 VRB03KT P6SM BKN010=

USA.gov is the U.S. government's official web portal to all federal, state and local government web resources and services.